Time;durP1;ratioP1;P1;durP2;ratioP2;P2;SDS_P1;SDS_P2;PMS_P1;PMS_P2;Temp;Humidity;BMP_temperature;BMP_pressure;BME280_temperature;BME280_humidity;BME280_pressure;Samples;Min_cycle;Max_cycle;Signal;HPM_P1;HPM_P2
2021/01/24 00:01:54;;;;;;;22.42;8.43;;;;;;;;;;4995147;28;20054;-60
2021/01/24 00:04:19;;;;;;;19.83;7.68;;;;;;;;;;4989308;28;20033;-60
2021/01/24 00:06:46;;;;;;;19.08;8.00;;;;;;;;;;4999231;28;20145;-60
2021/01/24 00:09:13;;;;;;;19.48;8.02;;;;;;;;;;5002340;28;20041;-60
2021/01/24 00:11:39;;;;;;;21.10;8.77;;;;;;;;;;5013662;28;20041;-59
2021/01/24 00:14:05;;;;;;;16.77;8.13;;;;;;;;;;5028525;28;20048;-60
2021/01/24 00:16:31;;;;;;;24.15;8.70;;;;;;;;;;5016807;28;20049;-60
2021/01/24 00:18:58;;;;;;;19.27;8.93;;;;;;;;;;5024125;28;20030;-60
2021/01/24 00:21:24;;;;;;;19.33;8.60;;;;;;;;;;5023213;28;20107;-59
2021/01/24 00:23:51;;;;;;;19.40;8.77;;;;;;;;;;5007946;28;20021;-59
2021/01/24 00:26:17;;;;;;;21.10;8.90;;;;;;;;;;5005241;28;20046;-60
2021/01/24 00:28:44;;;;;;;19.58;9.13;;;;;;;;;;5006742;28;20045;-60
2021/01/24 00:31:09;;;;;;;16.17;6.88;;;;;;;;;;5002396;28;20049;-59
2021/01/24 00:33:35;;;;;;;13.73;6.47;;;;;;;;;;5005319;28;20053;-60
2021/01/24 00:36:01;;;;;;;15.32;6.57;;;;;;;;;;5003944;28;20050;-59
2021/01/24 00:38:28;;;;;;;14.55;5.72;;;;;;;;;;5006574;28;20030;-59
2021/01/24 00:40:55;;;;;;;14.57;5.13;;;;;;;;;;5020619;28;20053;-60
2021/01/24 00:43:21;;;;;;;10.27;5.07;;;;;;;;;;5004261;28;20169;-60
2021/01/24 00:45:48;;;;;;;11.30;4.07;;;;;;;;;;5018727;28;20037;-60
2021/01/24 00:48:15;;;;;;;9.15;3.72;;;;;;;;;;5023725;28;20046;-59
2021/01/24 00:50:41;;;;;;;13.25;4.25;;;;;;;;;;5001981;28;20052;-59
2021/01/24 00:53:07;;;;;;;10.57;3.85;;;;;;;;;;5006366;28;20042;-60
2021/01/24 00:55:32;;;;;;;8.57;2.85;;;;;;;;;;5004382;28;20041;-60
2021/01/24 00:58:00;;;;;;;7.65;3.70;;;;;;;;;;5005883;28;20053;-60
2021/01/24 01:00:26;;;;;;;8.10;3.03;;;;;;;;;;5002448;28;20042;-60
2021/01/24 01:02:52;;;;;;;8.82;2.85;;;;;;;;;;5006506;28;20370;-60
2021/01/24 01:05:18;;;;;;;7.22;2.72;;;;;;;;;;5004930;28;20054;-60
2021/01/24 01:07:44;;;;;;;10.13;3.13;;;;;;;;;;4983201;28;20042;-59
2021/01/24 01:10:12;;;;;;;11.90;2.70;;;;;;;;;;4984652;28;20100;-60
2021/01/24 01:12:38;;;;;;;9.38;3.05;;;;;;;;;;4982422;28;20038;-60
2021/01/24 01:15:05;;;;;;;10.07;2.80;;;;;;;;;;5003003;28;20038;-60
2021/01/24 01:17:31;;;;;;;8.80;3.20;;;;;;;;;;4998083;28;20050;-60
2021/01/24 01:19:58;;;;;;;7.50;2.80;;;;;;;;;;4981195;28;20039;-60
2021/01/24 01:22:24;;;;;;;5.47;2.35;;;;;;;;;;4962127;28;20048;-59
2021/01/24 01:24:50;;;;;;;8.05;2.75;;;;;;;;;;4985419;28;20442;-59
2021/01/24 01:27:17;;;;;;;8.88;3.10;;;;;;;;;;4981552;28;20022;-59
2021/01/24 01:29:44;;;;;;;7.28;2.95;;;;;;;;;;4984936;28;20090;-59
2021/01/24 01:32:11;;;;;;;8.88;2.90;;;;;;;;;;4980616;28;20120;-59
2021/01/24 01:34:37;;;;;;;7.70;2.70;;;;;;;;;;4965912;28;20074;-59
2021/01/24 01:37:03;;;;;;;8.45;2.70;;;;;;;;;;4964317;28;20046;-59
2021/01/24 01:39:30;;;;;;;10.23;2.92;;;;;;;;;;4966435;28;20057;-59
2021/01/24 01:41:56;;;;;;;8.18;2.80;;;;;;;;;;4984329;28;20054;-59
2021/01/24 01:44:22;;;;;;;9.88;2.60;;;;;;;;;;4987295;28;20042;-59
2021/01/24 01:46:50;;;;;;;10.88;2.70;;;;;;;;;;4987244;28;20061;-61
2021/01/24 01:49:18;;;;;;;8.10;3.33;;;;;;;;;;4986254;28;20053;-62
2021/01/24 01:51:44;;;;;;;8.68;2.72;;;;;;;;;;4985556;28;20054;-62
2021/01/24 01:54:10;;;;;;;8.57;2.72;;;;;;;;;;4982688;28;20418;-63
2021/01/24 01:56:36;;;;;;;7.75;2.58;;;;;;;;;;5004358;28;20059;-62
2021/01/24 01:59:02;;;;;;;11.27;3.03;;;;;;;;;;4983375;28;20086;-60
2021/01/24 02:01:33;;;;;;;10.50;3.00;;;;;;;;;;4985398;28;20124;-60
2021/01/24 02:04:03;;;;;;;7.68;2.85;;;;;;;;;;4982785;28;20046;-60
2021/01/24 02:06:35;;;;;;;6.35;2.30;;;;;;;;;;4988584;28;20038;-60
2021/01/24 02:09:04;;;;;;;10.27;2.97;;;;;;;;;;4998228;28;20046;-59
2021/01/24 02:11:34;;;;;;;8.32;2.78;;;;;;;;;;5001894;28;20037;-59
2021/01/24 02:14:06;;;;;;;9.48;3.22;;;;;;;;;;4999838;28;20061;-59
2021/01/24 02:16:32;;;;;;;9.13;3.40;;;;;;;;;;5019103;28;20165;-59
2021/01/24 02:18:59;;;;;;;10.05;2.90;;;;;;;;;;4998954;28;20046;-60
2021/01/24 02:21:28;;;;;;;13.05;3.63;;;;;;;;;;5001364;28;20044;-60
2021/01/24 02:23:54;;;;;;;;;;;;;;;;;;4998025;28;20046;-60
2021/01/24 02:26:23;;;;;;;6.22;2.60;;;;;;;;;;5016446;28;19925;-60
2021/01/24 02:28:55;;;;;;;11.38;3.20;;;;;;;;;;5015331;28;20042;-60
2021/01/24 02:31:24;;;;;;;9.60;3.42;;;;;;;;;;5001125;28;20142;-60
2021/01/24 02:33:51;;;;;;;11.75;3.80;;;;;;;;;;5001769;28;20046;-59
2021/01/24 02:36:18;;;;;;;10.90;4.15;;;;;;;;;;4998322;28;20038;-60
2021/01/24 02:38:45;;;;;;;10.98;4.00;;;;;;;;;;5001617;28;20038;-60
2021/01/24 02:41:12;;;;;;;10.13;3.95;;;;;;;;;;4997937;28;20122;-60
2021/01/24 02:43:42;;;;;;;13.32;4.13;;;;;;;;;;5002058;28;20046;-60
2021/01/24 02:46:08;;;;;;;12.25;4.47;;;;;;;;;;4998388;28;20038;-59
2021/01/24 02:48:37;;;;;;;14.18;4.60;;;;;;;;;;5017725;28;20123;-60
2021/01/24 02:51:04;;;;;;;11.55;4.55;;;;;;;;;;4998177;28;20038;-60
2021/01/24 02:53:30;;;;;;;13.40;4.15;;;;;;;;;;5001377;28;20042;-60
2021/01/24 02:55:56;;;;;;;16.42;4.00;;;;;;;;;;4998313;28;20050;-60
2021/01/24 02:58:25;;;;;;;11.88;4.95;;;;;;;;;;5001751;28;20034;-60
2021/01/24 03:03:25;;;;;;;13.70;5.07;;;;;;;;;;5031363;22;20050;-60
2021/01/24 03:05:52;;;;;;;13.25;4.65;;;;;;;;;;5019254;28;20140;-59
2021/01/24 03:11:22;;;;;;;18.50;4.88;;;;;;;;;;5019343;28;20045;-59
2021/01/24 03:13:49;;;;;;;11.88;4.93;;;;;;;;;;5006852;28;20119;-60
2021/01/24 03:16:16;;;;;;;12.55;4.50;;;;;;;;;;5021402;28;20141;-60
2021/01/24 03:18:53;;;;;;;11.25;4.35;;;;;;;;;;5025320;28;20041;-60
2021/01/24 03:21:23;;;;;;;10.75;4.35;;;;;;;;;;5030961;28;20070;-59
2021/01/24 03:23:50;;;;;;;13.10;5.68;;;;;;;;;;5025637;28;20518;-60
2021/01/24 03:26:16;;;;;;;13.98;4.68;;;;;;;;;;5029683;28;20030;-59
2021/01/24 03:28:59;;;;;;;14.70;4.78;;;;;;;;;;5044295;28;20134;-60
2021/01/24 03:31:25;;;;;;;15.90;4.93;;;;;;;;;;5029476;28;20036;-60
2021/01/24 03:33:52;;;;;;;11.70;4.72;;;;;;;;;;5025195;28;20067;-60
2021/01/24 03:36:18;;;;;;;14.82;5.32;;;;;;;;;;5029724;28;20038;-59
2021/01/24 03:38:47;;;;;;;14.00;4.90;;;;;;;;;;5029990;28;20034;-60
2021/01/24 03:41:14;;;;;;;10.93;4.60;;;;;;;;;;5025383;28;20058;-59
2021/01/24 03:43:40;;;;;;;12.75;4.93;;;;;;;;;;5028559;28;20045;-60
2021/01/24 03:46:05;;;;;;;15.27;4.65;;;;;;;;;;5022387;28;20052;-59
2021/01/24 03:48:52;;;;;;;14.68;4.70;;;;;;;;;;5010413;28;20040;-60
2021/01/24 03:51:18;;;;;;;15.30;4.82;;;;;;;;;;5014851;28;20057;-59
2021/01/24 03:53:44;;;;;;;11.10;4.28;;;;;;;;;;5030170;28;20030;-59
2021/01/24 03:56:11;;;;;;;12.05;4.25;;;;;;;;;;5026663;28;20060;-59
2021/01/24 03:58:42;;;;;;;14.18;4.57;;;;;;;;;;5027279;28;20049;-59
2021/01/24 04:01:08;;;;;;;14.18;4.65;;;;;;;;;;5009006;28;20034;-59
2021/01/24 04:03:34;;;;;;;10.88;4.57;;;;;;;;;;5021600;28;20054;-60
2021/01/24 04:06:00;;;;;;;13.40;4.55;;;;;;;;;;5024356;28;20100;-60
2021/01/24 04:08:28;;;;;;;13.02;4.32;;;;;;;;;;5025466;28;20029;-60
2021/01/24 04:10:54;;;;;;;13.50;4.43;;;;;;;;;;5030229;28;20044;-60
2021/01/24 04:13:21;;;;;;;11.23;4.55;;;;;;;;;;5023945;28;20057;-60
2021/01/24 04:15:47;;;;;;;13.85;4.70;;;;;;;;;;5030209;28;20047;-59
2021/01/24 04:18:15;;;;;;;14.20;3.97;;;;;;;;;;5024886;28;20088;-60
2021/01/24 04:20:41;;;;;;;11.68;4.10;;;;;;;;;;5029865;28;20045;-60
2021/01/24 04:23:07;;;;;;;12.38;4.15;;;;;;;;;;5014460;28;20121;-59
2021/01/24 04:25:33;;;;;;;11.05;4.00;;;;;;;;;;5010021;28;20056;-60
2021/01/24 04:27:59;;;;;;;13.25;3.92;;;;;;;;;;5011996;28;20513;-59
2021/01/24 04:30:27;;;;;;;12.45;4.65;;;;;;;;;;5020930;28;20478;-59
2021/01/24 04:32:53;;;;;;;9.95;4.32;;;;;;;;;;5029734;28;20057;-60
2021/01/24 04:35:19;;;;;;;12.00;4.00;;;;;;;;;;5024555;28;20396;-59
2021/01/24 04:37:45;;;;;;;12.63;4.07;;;;;;;;;;5028701;28;20100;-59
2021/01/24 04:40:12;;;;;;;13.13;4.15;;;;;;;;;;5014274;28;20080;-59
2021/01/24 04:42:38;;;;;;;10.65;3.92;;;;;;;;;;5017021;28;20037;-60
2021/01/24 04:45:05;;;;;;;14.20;4.00;;;;;;;;;;5016161;28;20029;-60
2021/01/24 04:47:32;;;;;;;13.45;4.28;;;;;;;;;;5010441;28;20495;-60
2021/01/24 04:50:07;;;;;;;13.52;4.30;;;;;;;;;;5006313;28;20034;-60
2021/01/24 04:52:33;;;;;;;10.85;3.60;;;;;;;;;;5026840;28;20041;-59
2021/01/24 04:55:00;;;;;;;13.30;4.35;;;;;;;;;;5005654;28;20070;-60
2021/01/24 04:57:27;;;;;;;13.30;3.92;;;;;;;;;;5008741;28;20030;-60
2021/01/24 04:59:53;;;;;;;13.05;3.72;;;;;;;;;;5002086;28;20022;-60
2021/01/24 05:02:19;;;;;;;10.95;3.97;;;;;;;;;;5007953;28;20063;-60
2021/01/24 05:04:46;;;;;;;12.13;3.78;;;;;;;;;;5007989;28;20112;-60
2021/01/24 05:07:12;;;;;;;14.45;4.25;;;;;;;;;;5023549;28;20040;-60
2021/01/24 05:09:40;;;;;;;8.27;3.10;;;;;;;;;;5029681;28;20045;-59
2021/01/24 05:12:07;;;;;;;9.43;3.47;;;;;;;;;;5007906;28;20078;-59
2021/01/24 05:14:33;;;;;;;9.43;3.50;;;;;;;;;;5025463;28;20030;-60
2021/01/24 05:16:59;;;;;;;11.23;3.40;;;;;;;;;;5004209;28;20061;-60
2021/01/24 05:19:35;;;;;;;15.10;3.42;;;;;;;;;;5013328;28;20032;-60
2021/01/24 05:22:03;;;;;;;12.52;3.17;;;;;;;;;;5018836;28;20037;-60
2021/01/24 05:24:32;;;;;;;11.65;3.25;;;;;;;;;;5029493;28;20033;-60
2021/01/24 05:27:06;;;;;;;13.15;3.40;;;;;;;;;;5014251;28;20038;-60
2021/01/24 05:29:34;;;;;;;9.88;2.65;;;;;;;;;;5009332;28;20049;-59
2021/01/24 05:32:01;;;;;;;8.10;3.00;;;;;;;;;;5012129;28;20474;-60
2021/01/24 05:34:28;;;;;;;7.95;2.97;;;;;;;;;;5027065;28;20038;-60
2021/01/24 05:36:54;;;;;;;8.23;2.83;;;;;;;;;;5016332;28;20049;-59
2021/01/24 05:39:25;;;;;;;7.63;2.92;;;;;;;;;;5008686;28;20052;-59
2021/01/24 05:41:51;;;;;;;8.30;3.30;;;;;;;;;;5003941;28;20041;-60
2021/01/24 05:44:18;;;;;;;9.73;3.10;;;;;;;;;;5006617;28;20053;-60
2021/01/24 05:46:45;;;;;;;10.77;3.28;;;;;;;;;;5004112;28;20049;-60
2021/01/24 05:49:13;;;;;;;8.77;3.20;;;;;;;;;;5008086;28;20041;-59
2021/01/24 05:51:39;;;;;;;7.32;2.85;;;;;;;;;;5009592;28;20038;-60
2021/01/24 05:54:05;;;;;;;13.25;3.10;;;;;;;;;;5024985;28;20118;-59
2021/01/24 05:56:32;;;;;;;9.07;3.15;;;;;;;;;;5028265;28;20535;-60
2021/01/24 05:59:00;;;;;;;8.98;3.63;;;;;;;;;;5008729;28;20042;-59
2021/01/24 06:01:27;;;;;;;14.02;3.67;;;;;;;;;;5008347;28;20108;-59
2021/01/24 06:03:56;;;;;;;11.07;3.30;;;;;;;;;;5004708;28;20116;-60
2021/01/24 06:06:22;;;;;;;7.13;2.92;;;;;;;;;;5010054;28;20046;-60
2021/01/24 06:08:50;;;;;;;8.82;3.53;;;;;;;;;;5020880;28;20210;-59
2021/01/24 06:11:17;;;;;;;9.38;3.30;;;;;;;;;;5007809;28;20083;-60
2021/01/24 06:13:46;;;;;;;7.30;2.78;;;;;;;;;;5004578;28;20038;-60
2021/01/24 06:16:12;;;;;;;12.00;3.20;;;;;;;;;;5008256;28;20040;-60
2021/01/24 06:18:42;;;;;;;8.85;3.53;;;;;;;;;;5004856;28;20045;-60
2021/01/24 06:21:11;;;;;;;11.70;3.22;;;;;;;;;;5007590;28;20034;-60
2021/01/24 06:23:40;;;;;;;9.00;3.03;;;;;;;;;;5011153;28;20056;-60
2021/01/24 06:26:06;;;;;;;;;;;;;;;;;;5026949;28;20053;-60
2021/01/24 06:28:34;;;;;;;6.43;2.65;;;;;;;;;;5021844;28;19936;-60
2021/01/24 06:31:01;;;;;;;16.65;3.15;;;;;;;;;;5027416;28;20093;-60
2021/01/24 06:33:27;;;;;;;8.02;3.00;;;;;;;;;;5023805;28;20029;-59
2021/01/24 06:35:57;;;;;;;10.20;2.95;;;;;;;;;;5027539;28;20041;-60
2021/01/24 06:38:30;;;;;;;8.13;3.30;;;;;;;;;;5026146;28;20045;-60
2021/01/24 06:40:57;;;;;;;8.60;3.42;;;;;;;;;;5003539;28;20049;-60
2021/01/24 06:43:37;;;;;;;14.73;3.67;;;;;;;;;;5021735;28;20065;-60
2021/01/24 06:46:04;;;;;;;10.30;3.80;;;;;;;;;;5006184;28;20037;-60
2021/01/24 06:48:51;;;;;;;13.32;3.25;;;;;;;;;;5006308;28;20037;-60
2021/01/24 06:51:33;;;;;;;8.00;3.33;;;;;;;;;;5002201;28;20034;-60
2021/01/24 06:54:00;;;;;;;9.93;3.00;;;;;;;;;;5008161;28;20111;-60
2021/01/24 06:56:34;;;;;;;8.27;3.15;;;;;;;;;;5022073;28;20160;-59
2021/01/24 06:59:02;;;;;;;8.10;2.75;;;;;;;;;;5026909;28;20045;-60
2021/01/24 07:01:30;;;;;;;11.73;3.03;;;;;;;;;;5005484;28;20044;-59
2021/01/24 07:04:30;;;;;;;7.30;2.80;;;;;;;;;;5005397;28;20041;-60
2021/01/24 07:06:56;;;;;;;8.00;3.05;;;;;;;;;;5002367;28;20034;-59
2021/01/24 07:09:43;;;;;;;6.47;2.70;;;;;;;;;;5007144;28;20046;-59
2021/01/24 07:12:10;;;;;;;9.43;3.20;;;;;;;;;;5004777;28;20034;-60
2021/01/24 07:14:46;;;;;;;6.35;2.70;;;;;;;;;;5008897;28;20034;-59
2021/01/24 07:17:14;;;;;;;7.18;2.80;;;;;;;;;;5019671;28;20041;-59
2021/01/24 07:19:41;;;;;;;8.98;2.80;;;;;;;;;;5009960;28;20085;-59
2021/01/24 07:22:08;;;;;;;8.68;2.85;;;;;;;;;;5001595;28;20483;-59
2021/01/24 07:24:34;;;;;;;5.00;2.17;;;;;;;;;;5006208;28;20041;-60
2021/01/24 07:27:00;;;;;;;7.22;2.58;;;;;;;;;;5016746;28;20041;-59
2021/01/24 07:29:28;;;;;;;9.13;2.40;;;;;;;;;;5041178;28;20159;-59
2021/01/24 07:31:54;;;;;;;5.07;1.85;;;;;;;;;;5029735;28;20041;-59
2021/01/24 07:34:21;;;;;;;9.23;2.28;;;;;;;;;;5006039;28;20074;-59
2021/01/24 07:36:47;;;;;;;5.38;2.03;;;;;;;;;;5010032;28;20589;-60
2021/01/24 07:39:19;;;;;;;4.43;1.85;;;;;;;;;;5044539;28;20077;-59
2021/01/24 07:41:45;;;;;;;10.10;2.30;;;;;;;;;;5020951;28;20068;-59
2021/01/24 07:44:11;;;;;;;4.15;1.85;;;;;;;;;;5026676;28;20044;-59
2021/01/24 07:46:37;;;;;;;8.23;2.38;;;;;;;;;;5019260;28;20030;-59
2021/01/24 07:49:34;;;;;;;5.68;2.15;;;;;;;;;;5003983;28;20092;-59
2021/01/24 07:52:02;;;;;;;4.97;1.65;;;;;;;;;;5006950;28;20041;-59
2021/01/24 07:54:28;;;;;;;6.40;1.95;;;;;;;;;;5026411;28;20514;-59
2021/01/24 07:56:54;;;;;;;5.07;1.98;;;;;;;;;;5020429;28;22171;-59
2021/01/24 07:59:29;;;;;;;6.20;1.50;;;;;;;;;;5007882;28;20045;-59
2021/01/24 08:01:55;;;;;;;6.90;2.00;;;;;;;;;;5004589;28;20049;-59
2021/01/24 08:04:22;;;;;;;3.65;1.42;;;;;;;;;;5025581;28;20487;-59
2021/01/24 08:06:48;;;;;;;4.32;1.30;;;;;;;;;;5030703;28;20034;-59
2021/01/24 08:09:18;;;;;;;3.72;1.23;;;;;;;;;;5024044;28;20033;-59
2021/01/24 08:11:45;;;;;;;9.13;2.30;;;;;;;;;;5045743;28;20041;-62
2021/01/24 08:14:11;;;;;;;12.45;3.97;;;;;;;;;;5009247;28;20038;-62
2021/01/24 08:16:38;;;;;;;9.32;2.28;;;;;;;;;;5010900;28;20054;-62
2021/01/24 08:19:08;;;;;;;5.90;1.63;;;;;;;;;;5006225;28;20547;-62
2021/01/24 08:21:34;;;;;;;6.97;1.80;;;;;;;;;;5025781;28;20081;-62
2021/01/24 08:24:00;;;;;;;12.65;1.90;;;;;;;;;;5036657;28;20115;-62
2021/01/24 08:26:28;;;;;;;6.55;1.80;;;;;;;;;;5044702;28;20052;-61
2021/01/24 08:28:54;;;;;;;3.83;1.55;;;;;;;;;;5014467;28;20053;-62
2021/01/24 08:31:21;;;;;;;5.82;1.77;;;;;;;;;;5018816;28;20036;-62
2021/01/24 08:33:48;;;;;;;4.07;1.42;;;;;;;;;;5039294;28;20030;-61
2021/01/24 08:36:15;;;;;;;2.08;1.10;;;;;;;;;;5023148;28;20494;-65
2021/01/24 08:38:42;;;;;;;7.70;1.00;;;;;;;;;;5022957;28;20033;-61
2021/01/24 08:41:08;;;;;;;3.35;0.73;;;;;;;;;;5031346;28;20112;-62
2021/01/24 08:43:35;;;;;;;1.08;0.82;;;;;;;;;;5019486;28;20048;-62
2021/01/24 08:46:19;;;;;;;3.00;1.10;;;;;;;;;;5025644;28;20037;-61
2021/01/24 08:49:03;;;;;;;1.63;0.90;;;;;;;;;;5013908;28;20068;-62
2021/01/24 08:51:42;;;;;;;0.88;0.80;;;;;;;;;;5025962;28;20037;-62
2021/01/24 08:54:16;;;;;;;3.13;1.20;;;;;;;;;;5020557;28;20060;-62
2021/01/24 08:56:42;;;;;;;2.22;1.17;;;;;;;;;;5036108;28;20033;-63
2021/01/24 08:59:21;;;;;;;2.08;1.02;;;;;;;;;;5013659;28;20135;-63
2021/01/24 09:01:48;;;;;;;2.35;1.02;;;;;;;;;;5038942;28;20049;-62
2021/01/24 09:04:18;;;;;;;3.15;1.00;;;;;;;;;;5026074;28;20037;-62
2021/01/24 09:06:58;;;;;;;2.65;1.00;;;;;;;;;;5008809;28;20070;-62
2021/01/24 09:09:45;;;;;;;3.25;1.13;;;;;;;;;;5024575;28;20108;-62
2021/01/24 09:12:12;;;;;;;1.92;1.00;;;;;;;;;;4990889;28;20107;-62
2021/01/24 09:14:40;;;;;;;0.90;0.70;;;;;;;;;;4986711;28;20049;-62
2021/01/24 09:17:08;;;;;;;7.13;1.83;;;;;;;;;;5027544;28;20033;-62
2021/01/24 09:19:38;;;;;;;12.40;3.67;;;;;;;;;;5030616;28;20095;-62
2021/01/24 09:22:07;;;;;;;15.60;4.28;;;;;;;;;;5006107;28;20038;-62
2021/01/24 09:24:34;;;;;;;4.55;1.73;;;;;;;;;;5006583;28;20048;-62
2021/01/24 09:27:00;;;;;;;1.65;0.80;;;;;;;;;;5003212;28;20060;-62
2021/01/24 09:29:29;;;;;;;2.08;0.70;;;;;;;;;;5008774;28;20046;-62
2021/01/24 09:31:56;;;;;;;1.40;0.80;;;;;;;;;;5001659;28;20038;-62
2021/01/24 09:34:22;;;;;;;2.45;0.82;;;;;;;;;;5020255;28;20121;-62
2021/01/24 09:36:48;;;;;;;8.90;1.80;;;;;;;;;;5007856;28;20037;-62
2021/01/24 09:39:23;;;;;;;6.05;1.30;;;;;;;;;;5026625;28;20053;-62
2021/01/24 09:41:49;;;;;;;3.10;1.17;;;;;;;;;;5012853;28;20074;-62
2021/01/24 09:44:15;;;;;;;1.83;0.90;;;;;;;;;;5008138;28;20038;-62
2021/01/24 09:46:42;;;;;;;1.38;0.98;;;;;;;;;;5010474;28;20045;-62
2021/01/24 09:49:11;;;;;;;4.55;1.02;;;;;;;;;;5028553;28;20110;-62
2021/01/24 09:51:37;;;;;;;1.60;0.68;;;;;;;;;;5023136;28;20070;-62
2021/01/24 09:54:04;;;;;;;1.88;0.82;;;;;;;;;;5028392;28;20029;-62
2021/01/24 09:56:30;;;;;;;2.28;0.80;;;;;;;;;;5022130;28;20110;-62
2021/01/24 09:59:00;;;;;;;1.98;1.10;;;;;;;;;;5007721;28;20041;-62
2021/01/24 10:01:26;;;;;;;1.50;0.68;;;;;;;;;;5006068;28;20026;-62
2021/01/24 10:03:53;;;;;;;6.30;1.00;;;;;;;;;;5027586;28;20091;-62
2021/01/24 10:06:20;;;;;;;3.85;1.10;;;;;;;;;;5032046;28;20030;-62
2021/01/24 10:08:47;;;;;;;4.07;0.75;;;;;;;;;;4992347;28;20145;-62
2021/01/24 10:11:13;;;;;;;3.35;1.23;;;;;;;;;;4988660;28;20039;-62
2021/01/24 10:13:40;;;;;;;8.00;2.40;;;;;;;;;;5013905;28;20048;-62
2021/01/24 10:16:06;;;;;;;6.88;1.90;;;;;;;;;;5007497;28;20079;-62
2021/01/24 10:18:36;;;;;;;6.30;2.13;;;;;;;;;;5004391;28;20034;-62
2021/01/24 10:21:03;;;;;;;5.35;1.80;;;;;;;;;;5006045;28;20045;-62
2021/01/24 10:23:30;;;;;;;2.85;0.70;;;;;;;;;;5017898;28;20042;-62
2021/01/24 10:25:57;;;;;;;7.32;1.17;;;;;;;;;;5006884;28;20045;-62
2021/01/24 10:28:26;;;;;;;3.47;0.90;;;;;;;;;;5001537;28;20106;-62
2021/01/24 10:30:53;;;;;;;4.15;1.23;;;;;;;;;;4999704;28;20046;-62
2021/01/24 10:33:20;;;;;;;2.20;1.02;;;;;;;;;;5003250;28;20034;-62
2021/01/24 10:35:47;;;;;;;2.97;1.15;;;;;;;;;;5007711;28;20054;-60
2021/01/24 10:38:13;;;;;;;2.50;0.85;;;;;;;;;;5015164;28;20609;-60
2021/01/24 10:40:40;;;;;;;2.05;0.80;;;;;;;;;;5002372;28;20033;-60
2021/01/24 10:43:07;;;;;;;3.85;0.73;;;;;;;;;;4999205;28;20049;-60
2021/01/24 10:45:33;;;;;;;4.30;0.82;;;;;;;;;;5020540;28;20115;-60
2021/01/24 10:48:01;;;;;;;3.80;1.10;;;;;;;;;;5005696;28;20029;-60
2021/01/24 10:50:27;;;;;;;3.47;0.85;;;;;;;;;;4982719;28;20042;-60
2021/01/24 10:52:53;;;;;;;1.45;0.68;;;;;;;;;;4985948;28;20050;-59
2021/01/24 10:55:19;;;;;;;2.40;0.70;;;;;;;;;;4996710;28;20040;-59
2021/01/24 10:57:48;;;;;;;2.78;0.80;;;;;;;;;;5005918;28;20164;-59
2021/01/24 11:00:14;;;;;;;4.63;0.80;;;;;;;;;;5000376;28;20044;-59
2021/01/24 11:02:41;;;;;;;2.10;0.70;;;;;;;;;;5023130;28;20052;-59
2021/01/24 11:05:08;;;;;;;3.28;0.80;;;;;;;;;;5017753;28;20116;-59
2021/01/24 11:07:34;;;;;;;5.50;0.80;;;;;;;;;;5025176;28;20115;-59
2021/01/24 11:10:08;;;;;;;5.18;1.40;;;;;;;;;;5022182;28;20049;-60
2021/01/24 11:12:34;;;;;;;4.70;1.10;;;;;;;;;;5026906;28;20116;-59
2021/01/24 11:15:01;;;;;;;7.95;2.10;;;;;;;;;;5016302;28;20049;-59
2021/01/24 11:17:27;;;;;;;9.88;2.42;;;;;;;;;;5026090;28;20049;-60
2021/01/24 11:19:57;;;;;;;2.33;1.20;;;;;;;;;;5004851;28;20119;-59
2021/01/24 11:22:24;;;;;;;5.47;1.00;;;;;;;;;;5005493;28;20038;-60
2021/01/24 11:24:50;;;;;;;1.83;0.80;;;;;;;;;;5021936;28;20116;-60
2021/01/24 11:27:17;;;;;;;2.97;1.00;;;;;;;;;;5007543;28;20114;-60
2021/01/24 11:29:44;;;;;;;2.40;0.80;;;;;;;;;;5016324;28;20081;-60
2021/01/24 11:32:11;;;;;;;5.05;0.90;;;;;;;;;;5040970;28;20118;-59
2021/01/24 11:34:37;;;;;;;6.15;1.00;;;;;;;;;;5025111;28;20045;-59
2021/01/24 11:37:03;;;;;;;3.60;0.82;;;;;;;;;;5007006;28;20041;-60
2021/01/24 11:39:30;;;;;;;3.20;0.80;;;;;;;;;;5009413;28;20036;-60
2021/01/24 11:41:56;;;;;;;1.27;0.80;;;;;;;;;;5009211;28;20052;-60
2021/01/24 11:44:23;;;;;;;1.70;0.85;;;;;;;;;;5048106;28;20033;-60
2021/01/24 11:46:49;;;;;;;2.90;0.95;;;;;;;;;;5013034;28;20038;-60
2021/01/24 11:49:16;;;;;;;10.18;1.40;;;;;;;;;;5008802;28;20172;-60
2021/01/24 11:51:42;;;;;;;8.30;1.10;;;;;;;;;;5014631;28;20029;-59
2021/01/24 11:54:09;;;;;;;2.97;1.08;;;;;;;;;;5029934;28;20044;-59
2021/01/24 11:56:35;;;;;;;3.60;1.25;;;;;;;;;;5021706;28;20040;-59
2021/01/24 11:59:03;;;;;;;3.47;1.10;;;;;;;;;;5025691;28;20037;-60
2021/01/24 12:01:29;;;;;;;3.85;1.40;;;;;;;;;;5010784;28;20030;-60
2021/01/24 12:03:55;;;;;;;6.28;1.40;;;;;;;;;;5009975;28;20046;-60
2021/01/24 12:06:22;;;;;;;5.38;0.82;;;;;;;;;;5008301;28;20067;-60
2021/01/24 12:08:51;;;;;;;2.05;0.98;;;;;;;;;;5009941;28;20053;-60
2021/01/24 12:11:17;;;;;;;12.90;1.63;;;;;;;;;;5007942;28;20049;-60
2021/01/24 12:13:43;;;;;;;9.35;1.90;;;;;;;;;;5008088;28;20118;-60
2021/01/24 12:16:09;;;;;;;8.88;1.70;;;;;;;;;;5009931;28;20033;-60
2021/01/24 12:18:43;;;;;;;6.28;1.63;;;;;;;;;;5021098;28;20044;-59
2021/01/24 12:21:09;;;;;;;7.25;1.60;;;;;;;;;;5029372;28;20048;-60
2021/01/24 12:23:36;;;;;;;7.22;1.75;;;;;;;;;;5010171;28;20062;-60
2021/01/24 12:26:03;;;;;;;4.70;1.48;;;;;;;;;;5010291;28;20042;-60
2021/01/24 12:28:46;;;;;;;6.78;1.83;;;;;;;;;;5017372;28;20044;-60
2021/01/24 12:31:12;;;;;;;6.25;2.58;;;;;;;;;;5029234;28;20078;-59
2021/01/24 12:33:38;;;;;;;10.50;3.30;;;;;;;;;;5025436;28;20050;-60
2021/01/24 12:36:05;;;;;;;5.43;2.15;;;;;;;;;;5029294;28;20025;-60
2021/01/24 12:38:33;;;;;;;3.33;1.65;;;;;;;;;;5031443;28;20037;-60
2021/01/24 12:41:00;;;;;;;7.65;2.10;;;;;;;;;;5028578;28;20065;-60
2021/01/24 12:43:27;;;;;;;6.60;2.08;;;;;;;;;;5020137;28;20049;-60
2021/01/24 12:45:53;;;;;;;8.98;2.47;;;;;;;;;;5009262;28;20037;-60
2021/01/24 12:48:19;;;;;;;5.20;1.63;;;;;;;;;;5006935;28;20033;-60
2021/01/24 12:50:45;;;;;;;9.38;2.38;;;;;;;;;;5009094;28;20033;-61
2021/01/24 12:53:11;;;;;;;11.63;2.78;;;;;;;;;;5010494;28;20042;-60
2021/01/24 12:55:37;;;;;;;13.90;2.65;;;;;;;;;;5012522;28;20053;-60
2021/01/24 12:58:16;;;;;;;14.30;2.10;;;;;;;;;;5032661;28;20107;-60
2021/01/24 13:00:42;;;;;;;5.22;1.80;;;;;;;;;;4998324;28;20062;-60
2021/01/24 13:03:08;;;;;;;6.25;1.88;;;;;;;;;;5009198;28;20066;-60
2021/01/24 13:05:34;;;;;;;7.97;2.40;;;;;;;;;;5019058;28;20045;-60
2021/01/24 13:08:04;;;;;;;4.97;1.80;;;;;;;;;;5016759;28;20046;-60
2021/01/24 13:10:30;;;;;;;5.60;1.98;;;;;;;;;;5017380;28;20033;-60
2021/01/24 13:12:56;;;;;;;7.63;1.98;;;;;;;;;;5022903;28;20049;-60
2021/01/24 13:15:24;;;;;;;4.20;1.80;;;;;;;;;;5035263;28;20061;-60
2021/01/24 13:17:49;;;;;;;5.43;1.75;;;;;;;;;;5029180;28;20048;-60
2021/01/24 13:20:16;;;;;;;5.55;2.03;;;;;;;;;;5017937;28;20093;-60
2021/01/24 13:22:42;;;;;;;8.80;1.75;;;;;;;;;;5022605;28;20061;-60
2021/01/24 13:25:08;;;;;;;6.03;1.95;;;;;;;;;;5018532;28;20167;-60
2021/01/24 13:27:34;;;;;;;6.88;1.95;;;;;;;;;;5024721;28;20045;-60
2021/01/24 13:30:01;;;;;;;4.82;1.80;;;;;;;;;;5021035;28;20044;-60
2021/01/24 13:32:28;;;;;;;5.25;1.83;;;;;;;;;;5024262;28;20126;-60
2021/01/24 13:34:54;;;;;;;6.60;2.22;;;;;;;;;;5012526;28;20086;-60
2021/01/24 13:37:21;;;;;;;12.98;2.78;;;;;;;;;;5016607;28;20053;-60
2021/01/24 13:39:49;;;;;;;7.22;2.42;;;;;;;;;;5026423;28;20045;-60
2021/01/24 13:42:15;;;;;;;5.20;1.92;;;;;;;;;;5018385;28;20105;-60
2021/01/24 13:44:41;;;;;;;6.25;1.90;;;;;;;;;;5016279;28;20034;-60
2021/01/24 13:47:07;;;;;;;4.03;1.73;;;;;;;;;;5023101;28;20052;-60
2021/01/24 13:49:43;;;;;;;4.80;1.80;;;;;;;;;;5016421;28;20060;-60
2021/01/24 13:52:09;;;;;;;5.53;1.48;;;;;;;;;;5016865;28;20030;-60
2021/01/24 13:54:37;;;;;;;13.43;2.08;;;;;;;;;;5023326;28;20030;-60
2021/01/24 13:57:03;;;;;;;3.13;1.00;;;;;;;;;;5012582;28;20049;-61
2021/01/24 13:59:32;;;;;;;6.05;1.65;;;;;;;;;;5024170;28;20042;-60
2021/01/24 14:01:58;;;;;;;11.13;1.48;;;;;;;;;;5011650;28;20041;-60
2021/01/24 14:04:45;;;;;;;5.60;1.15;;;;;;;;;;5022672;28;20119;-60
2021/01/24 14:07:11;;;;;;;4.70;1.10;;;;;;;;;;5018723;28;20070;-60
2021/01/24 14:09:54;;;;;;;2.20;1.15;;;;;;;;;;5030127;28;20068;-60
2021/01/24 14:12:23;;;;;;;9.73;1.50;;;;;;;;;;5019506;28;20021;-60
2021/01/24 14:14:49;;;;;;;3.97;1.30;;;;;;;;;;5032601;28;20049;-60
2021/01/24 14:17:15;;;;;;;6.75;1.48;;;;;;;;;;5016619;28;20118;-60
2021/01/24 14:19:45;;;;;;;6.28;1.33;;;;;;;;;;5035256;28;20042;-60
2021/01/24 14:22:11;;;;;;;7.25;2.00;;;;;;;;;;5020259;28;20033;-60
2021/01/24 14:24:38;;;;;;;13.32;2.70;;;;;;;;;;5041619;28;20021;-60
2021/01/24 14:27:04;;;;;;;9.32;3.42;;;;;;;;;;5024214;28;20049;-60
2021/01/24 14:29:37;;;;;;;12.98;4.40;;;;;;;;;;5028758;28;20045;-60
2021/01/24 14:32:03;;;;;;;12.75;4.10;;;;;;;;;;5008805;28;20034;-61
2021/01/24 14:34:29;;;;;;;8.50;2.58;;;;;;;;;;5022428;28;20040;-60
2021/01/24 14:36:56;;;;;;;9.57;2.25;;;;;;;;;;5041402;28;20037;-60
2021/01/24 14:39:24;;;;;;;10.88;2.35;;;;;;;;;;5015737;28;20102;-60
2021/01/24 14:41:50;;;;;;;7.80;1.77;;;;;;;;;;5027959;28;20041;-60
2021/01/24 14:44:16;;;;;;;6.53;1.95;;;;;;;;;;5016880;28;20069;-60
2021/01/24 14:46:42;;;;;;;6.28;1.67;;;;;;;;;;5012181;28;20068;-60
2021/01/24 14:49:08;;;;;;;8.38;2.20;;;;;;;;;;5005986;28;20038;-60